sensor_id;sensor_type;location;lat;lon;timestamp;temperature;humidity
20233;DHT22;37438;55.674;13.074;2023-02-02T00:29:29;4.30;99.90
20233;DHT22;37438;55.674;13.074;2023-02-02T00:40:20;4.30;99.90
20233;DHT22;37438;55.674;13.074;2023-02-02T01:41:46;4.10;99.90
20233;DHT22;37438;55.674;13.074;2023-02-02T01:48:36;4.10;99.90
20233;DHT22;37438;55.674;13.074;2023-02-02T01:54:37;3.90;99.90
20233;DHT22;37438;55.674;13.074;2023-02-02T02:02:03;3.80;99.90
20233;DHT22;37438;55.674;13.074;2023-02-02T02:06:14;4.00;99.90
20233;DHT22;37438;55.674;13.074;2023-02-02T02:09:58;3.60;99.90
20233;DHT22;37438;55.674;13.074;2023-02-02T02:14:10;3.60;99.90
20233;DHT22;37438;55.674;13.074;2023-02-02T02:32:47;3.20;99.90
20233;DHT22;37438;55.674;13.074;2023-02-02T02:36:39;3.30;99.90
20233;DHT22;37438;55.674;13.074;2023-02-02T02:40:21;3.20;99.90
20233;DHT22;37438;55.674;13.074;2023-02-02T02:43:45;3.10;99.90
20233;DHT22;37438;55.674;13.074;2023-02-02T02:47:21;3.10;99.90
20233;DHT22;37438;55.674;13.074;2023-02-02T02:50:38;3.10;99.90
20233;DHT22;37438;55.674;13.074;2023-02-02T02:53:48;3.10;99.90
20233;DHT22;37438;55.674;13.074;2023-02-02T03:00:46;2.90;99.90
20233;DHT22;37438;55.674;13.074;2023-02-02T03:04:07;2.90;99.90
20233;DHT22;37438;55.674;13.074;2023-02-02T03:11:31;2.90;99.90
20233;DHT22;37438;55.674;13.074;2023-02-02T03:14:50;2.80;99.90
20233;DHT22;37438;55.674;13.074;2023-02-02T03:21:58;2.70;99.90
20233;DHT22;37438;55.674;13.074;2023-02-02T03:25:18;2.70;99.90
20233;DHT22;37438;55.674;13.074;2023-02-02T03:28:28;2.70;99.90
20233;DHT22;37438;55.674;13.074;2023-02-02T03:31:38;2.80;99.90
20233;DHT22;37438;55.674;13.074;2023-02-02T03:34:46;2.70;99.90
20233;DHT22;37438;55.674;13.074;2023-02-02T03:38:00;2.60;99.90
20233;DHT22;37438;55.674;13.074;2023-02-02T03:41:07;2.60;99.90
20233;DHT22;37438;55.674;13.074;2023-02-02T03:44:13;2.40;99.90
20233;DHT22;37438;55.674;13.074;2023-02-02T03:47:20;2.50;99.90
20233;DHT22;37438;55.674;13.074;2023-02-02T03:50:29;2.50;99.90
20233;DHT22;37438;55.674;13.074;2023-02-02T03:53:35;2.50;99.90
20233;DHT22;37438;55.674;13.074;2023-02-02T03:56:41;2.50;99.90
20233;DHT22;37438;55.674;13.074;2023-02-02T03:59:47;2.40;99.90
20233;DHT22;37438;55.674;13.074;2023-02-02T04:02:52;2.40;99.90
20233;DHT22;37438;55.674;13.074;2023-02-02T04:05:58;2.40;99.90
20233;DHT22;37438;55.674;13.074;2023-02-02T04:09:03;2.40;99.90
20233;DHT22;37438;55.674;13.074;2023-02-02T04:12:08;2.40;99.90
20233;DHT22;37438;55.674;13.074;2023-02-02T04:15:13;2.50;99.90
20233;DHT22;37438;55.674;13.074;2023-02-02T04:18:19;2.30;99.90
20233;DHT22;37438;55.674;13.074;2023-02-02T04:21:24;2.20;99.90
20233;DHT22;37438;55.674;13.074;2023-02-02T04:24:32;2.20;99.90
20233;DHT22;37438;55.674;13.074;2023-02-02T04:27:41;2.40;99.90
20233;DHT22;37438;55.674;13.074;2023-02-02T04:30:47;2.30;99.90
20233;DHT22;37438;55.674;13.074;2023-02-02T04:33:52;2.20;99.90
20233;DHT22;37438;55.674;13.074;2023-02-02T04:36:57;2.20;99.90
20233;DHT22;37438;55.674;13.074;2023-02-02T04:40:02;2.20;99.90
20233;DHT22;37438;55.674;13.074;2023-02-02T04:43:08;2.20;99.90
20233;DHT22;37438;55.674;13.074;2023-02-02T04:46:13;2.20;99.90
20233;DHT22;37438;55.674;13.074;2023-02-02T04:49:18;2.20;99.90
20233;DHT22;37438;55.674;13.074;2023-02-02T04:52:24;2.20;99.90
20233;DHT22;37438;55.674;13.074;2023-02-02T04:55:29;2.20;99.90
20233;DHT22;37438;55.674;13.074;2023-02-02T04:58:33;2.20;99.90
20233;DHT22;37438;55.674;13.074;2023-02-02T05:01:38;2.20;99.90
20233;DHT22;37438;55.674;13.074;2023-02-02T05:04:44;2.30;99.90
20233;DHT22;37438;55.674;13.074;2023-02-02T05:07:49;2.20;99.90
20233;DHT22;37438;55.674;13.074;2023-02-02T05:10:54;2.10;99.90
20233;DHT22;37438;55.674;13.074;2023-02-02T05:13:59;2.10;99.90
20233;DHT22;37438;55.674;13.074;2023-02-02T05:17:06;2.10;99.90
20233;DHT22;37438;55.674;13.074;2023-02-02T05:20:12;2.10;99.90
20233;DHT22;37438;55.674;13.074;2023-02-02T05:23:18;2.10;99.90
20233;DHT22;37438;55.674;13.074;2023-02-02T05:26:25;2.20;99.90
20233;DHT22;37438;55.674;13.074;2023-02-02T05:29:32;2.10;99.90
20233;DHT22;37438;55.674;13.074;2023-02-02T05:32:37;2.10;99.90
20233;DHT22;37438;55.674;13.074;2023-02-02T05:35:44;2.10;99.90
20233;DHT22;37438;55.674;13.074;2023-02-02T05:38:50;2.10;99.90
20233;DHT22;37438;55.674;13.074;2023-02-02T05:41:56;2.10;99.90
20233;DHT22;37438;55.674;13.074;2023-02-02T05:45:04;2.10;99.90
20233;DHT22;37438;55.674;13.074;2023-02-02T05:48:23;2.00;99.90
20233;DHT22;37438;55.674;13.074;2023-02-02T05:51:33;2.10;99.90
20233;DHT22;37438;55.674;13.074;2023-02-02T05:54:53;2.10;99.90
20233;DHT22;37438;55.674;13.074;2023-02-02T05:57:59;2.00;99.90
20233;DHT22;37438;55.674;13.074;2023-02-02T06:01:04;2.00;99.90
20233;DHT22;37438;55.674;13.074;2023-02-02T06:04:09;2.10;99.90
20233;DHT22;37438;55.674;13.074;2023-02-02T06:07:16;2.10;99.90
20233;DHT22;37438;55.674;13.074;2023-02-02T06:10:22;2.00;99.90
20233;DHT22;37438;55.674;13.074;2023-02-02T06:13:27;2.10;99.90
20233;DHT22;37438;55.674;13.074;2023-02-02T06:16:35;2.00;99.90
20233;DHT22;37438;55.674;13.074;2023-02-02T06:19:42;2.00;99.90
20233;DHT22;37438;55.674;13.074;2023-02-02T06:22:47;2.00;99.90
20233;DHT22;37438;55.674;13.074;2023-02-02T06:25:53;1.90;99.90
20233;DHT22;37438;55.674;13.074;2023-02-02T06:28:58;2.00;99.90
20233;DHT22;37438;55.674;13.074;2023-02-02T06:32:03;1.90;99.90
20233;DHT22;37438;55.674;13.074;2023-02-02T06:35:17;1.90;99.90
20233;DHT22;37438;55.674;13.074;2023-02-02T06:38:27;1.90;99.90
20233;DHT22;37438;55.674;13.074;2023-02-02T06:41:41;1.80;99.90
20233;DHT22;37438;55.674;13.074;2023-02-02T06:44:54;1.90;99.90
20233;DHT22;37438;55.674;13.074;2023-02-02T06:48:00;1.80;99.90
20233;DHT22;37438;55.674;13.074;2023-02-02T06:51:14;1.60;99.90
20233;DHT22;37438;55.674;13.074;2023-02-02T06:54:24;1.70;99.90
20233;DHT22;37438;55.674;13.074;2023-02-02T06:57:30;1.60;99.90
20233;DHT22;37438;55.674;13.074;2023-02-02T07:00:37;1.50;99.90
20233;DHT22;37438;55.674;13.074;2023-02-02T07:03:42;1.40;99.90
20233;DHT22;37438;55.674;13.074;2023-02-02T07:06:52;1.30;99.90
20233;DHT22;37438;55.674;13.074;2023-02-02T07:09:58;1.20;99.90
20233;DHT22;37438;55.674;13.074;2023-02-02T07:13:04;1.20;99.90
20233;DHT22;37438;55.674;13.074;2023-02-02T07:16:12;1.10;99.90
20233;DHT22;37438;55.674;13.074;2023-02-02T07:19:19;1.00;99.90
20233;DHT22;37438;55.674;13.074;2023-02-02T07:22:24;1.00;99.90
20233;DHT22;37438;55.674;13.074;2023-02-02T07:25:29;0.90;99.90
20233;DHT22;37438;55.674;13.074;2023-02-02T07:28:37;0.90;99.90
20233;DHT22;37438;55.674;13.074;2023-02-02T07:31:57;0.80;99.90
20233;DHT22;37438;55.674;13.074;2023-02-02T07:35:02;0.80;99.90
20233;DHT22;37438;55.674;13.074;2023-02-02T07:38:06;0.80;99.90
20233;DHT22;37438;55.674;13.074;2023-02-02T07:41:12;0.80;99.90
20233;DHT22;37438;55.674;13.074;2023-02-02T07:44:17;0.70;99.90
20233;DHT22;37438;55.674;13.074;2023-02-02T07:47:23;0.70;99.90
20233;DHT22;37438;55.674;13.074;2023-02-02T07:50:31;0.70;99.90
20233;DHT22;37438;55.674;13.074;2023-02-02T07:53:36;0.70;99.90
20233;DHT22;37438;55.674;13.074;2023-02-02T07:56:41;0.80;99.90
20233;DHT22;37438;55.674;13.074;2023-02-02T07:59:46;0.70;99.90
20233;DHT22;37438;55.674;13.074;2023-02-02T08:02:50;0.80;99.90
20233;DHT22;37438;55.674;13.074;2023-02-02T08:05:56;0.80;99.90
20233;DHT22;37438;55.674;13.074;2023-02-02T08:09:04;0.80;99.90
20233;DHT22;37438;55.674;13.074;2023-02-02T08:12:10;0.80;99.90
20233;DHT22;37438;55.674;13.074;2023-02-02T08:15:15;0.90;99.90
20233;DHT22;37438;55.674;13.074;2023-02-02T08:18:20;0.90;99.90
20233;DHT22;37438;55.674;13.074;2023-02-02T08:21:25;0.90;99.90
20233;DHT22;37438;55.674;13.074;2023-02-02T08:24:32;1.10;99.90
20233;DHT22;37438;55.674;13.074;2023-02-02T08:27:38;1.10;99.90
20233;DHT22;37438;55.674;13.074;2023-02-02T08:30:43;1.20;99.90
20233;DHT22;37438;55.674;13.074;2023-02-02T08:33:48;1.50;99.90
20233;DHT22;37438;55.674;13.074;2023-02-02T08:36:54;1.80;99.90
20233;DHT22;37438;55.674;13.074;2023-02-02T08:39:59;2.50;99.90
20233;DHT22;37438;55.674;13.074;2023-02-02T08:43:10;3.40;99.90
20233;DHT22;37438;55.674;13.074;2023-02-02T08:46:20;3.70;99.90
20233;DHT22;37438;55.674;13.074;2023-02-02T15:52:33;2.20;83.50
20233;DHT22;37438;55.674;13.074;2023-02-02T15:55:42;2.20;82.20
20233;DHT22;37438;55.674;13.074;2023-02-02T15:59:02;2.00;82.30
20233;DHT22;37438;55.674;13.074;2023-02-02T16:02:30;1.90;80.50
20233;DHT22;37438;55.674;13.074;2023-02-02T16:08:43;1.70;80.10
20233;DHT22;37438;55.674;13.074;2023-02-02T16:11:50;1.70;81.50
20233;DHT22;37438;55.674;13.074;2023-02-02T16:15:00;1.60;83.40
20233;DHT22;37438;55.674;13.074;2023-02-02T16:18:12;1.50;84.90
20233;DHT22;37438;55.674;13.074;2023-02-02T16:21:22;1.50;87.70
20233;DHT22;37438;55.674;13.074;2023-02-02T16:24:43;1.40;90.90
20233;DHT22;37438;55.674;13.074;2023-02-02T16:27:50;1.40;92.10
20233;DHT22;37438;55.674;13.074;2023-02-02T16:30:59;1.30;94.30
20233;DHT22;37438;55.674;13.074;2023-02-02T16:34:15;1.20;97.60
20233;DHT22;37438;55.674;13.074;2023-02-02T16:37:26;1.20;99.90
20233;DHT22;37438;55.674;13.074;2023-02-02T16:40:37;1.20;99.90
20233;DHT22;37438;55.674;13.074;2023-02-02T16:47:47;1.00;99.90
20233;DHT22;37438;55.674;13.074;2023-02-02T16:54:20;0.90;99.90
20233;DHT22;37438;55.674;13.074;2023-02-02T16:57:30;0.90;99.90
20233;DHT22;37438;55.674;13.074;2023-02-02T17:00:39;0.80;99.90
20233;DHT22;37438;55.674;13.074;2023-02-02T17:04:07;0.70;99.90
20233;DHT22;37438;55.674;13.074;2023-02-02T17:07:28;0.70;99.90
20233;DHT22;37438;55.674;13.074;2023-02-02T17:11:24;0.70;99.90
20233;DHT22;37438;55.674;13.074;2023-02-02T17:14:55;0.60;99.90
20233;DHT22;37438;55.674;13.074;2023-02-02T17:18:08;0.50;99.90
20233;DHT22;37438;55.674;13.074;2023-02-02T17:21:18;0.40;99.90
20233;DHT22;37438;55.674;13.074;2023-02-02T17:24:25;0.50;99.90
20233;DHT22;37438;55.674;13.074;2023-02-02T17:27:38;0.40;99.90
20233;DHT22;37438;55.674;13.074;2023-02-02T17:30:45;0.40;99.90
20233;DHT22;37438;55.674;13.074;2023-02-02T17:33:53;0.30;99.90
20233;DHT22;37438;55.674;13.074;2023-02-02T17:36:59;0.20;99.90
20233;DHT22;37438;55.674;13.074;2023-02-02T17:40:05;0.20;99.90
20233;DHT22;37438;55.674;13.074;2023-02-02T17:43:11;0.20;99.90
20233;DHT22;37438;55.674;13.074;2023-02-02T17:46:17;0.10;99.90
20233;DHT22;37438;55.674;13.074;2023-02-02T17:49:24;0.00;99.90
20233;DHT22;37438;55.674;13.074;2023-02-02T17:52:39;-0.10;99.90
20233;DHT22;37438;55.674;13.074;2023-02-02T17:55:49;0.00;99.90
20233;DHT22;37438;55.674;13.074;2023-02-02T17:59:21;0.00;99.90
20233;DHT22;37438;55.674;13.074;2023-02-02T18:02:26;-0.10;99.90
20233;DHT22;37438;55.674;13.074;2023-02-02T18:05:32;-0.20;99.90
20233;DHT22;37438;55.674;13.074;2023-02-02T18:08:41;-0.20;99.90
20233;DHT22;37438;55.674;13.074;2023-02-02T18:11:50;-0.30;99.90
20233;DHT22;37438;55.674;13.074;2023-02-02T18:14:56;-0.20;99.90
20233;DHT22;37438;55.674;13.074;2023-02-02T18:18:07;-0.30;99.90
20233;DHT22;37438;55.674;13.074;2023-02-02T18:21:17;-0.40;99.90
20233;DHT22;37438;55.674;13.074;2023-02-02T18:24:22;-0.50;99.90
20233;DHT22;37438;55.674;13.074;2023-02-02T18:27:31;-0.50;99.90
20233;DHT22;37438;55.674;13.074;2023-02-02T18:30:49;-0.70;99.90
20233;DHT22;37438;55.674;13.074;2023-02-02T18:33:56;-0.70;99.90
20233;DHT22;37438;55.674;13.074;2023-02-02T18:37:22;-0.70;99.90
20233;DHT22;37438;55.674;13.074;2023-02-02T18:40:30;-0.80;99.90
20233;DHT22;37438;55.674;13.074;2023-02-02T18:43:36;-0.80;99.90
20233;DHT22;37438;55.674;13.074;2023-02-02T18:46:44;-0.80;99.90
20233;DHT22;37438;55.674;13.074;2023-02-02T18:49:50;-0.90;99.90
20233;DHT22;37438;55.674;13.074;2023-02-02T18:53:00;-0.90;99.90
20233;DHT22;37438;55.674;13.074;2023-02-02T18:56:19;-1.00;99.90
20233;DHT22;37438;55.674;13.074;2023-02-02T18:59:44;-0.90;99.90
20233;DHT22;37438;55.674;13.074;2023-02-02T19:02:53;-0.90;99.90
20233;DHT22;37438;55.674;13.074;2023-02-02T19:06:03;-1.00;99.90
20233;DHT22;37438;55.674;13.074;2023-02-02T19:09:46;-1.00;99.90
20233;DHT22;37438;55.674;13.074;2023-02-02T19:13:18;-1.10;99.90
20233;DHT22;37438;55.674;13.074;2023-02-02T19:16:40;-1.10;99.90
20233;DHT22;37438;55.674;13.074;2023-02-02T19:19:47;-1.10;99.90
20233;DHT22;37438;55.674;13.074;2023-02-02T19:23:01;-1.00;99.90
20233;DHT22;37438;55.674;13.074;2023-02-02T19:26:37;-1.00;99.90
20233;DHT22;37438;55.674;13.074;2023-02-02T19:29:58;-1.00;99.90
20233;DHT22;37438;55.674;13.074;2023-02-02T19:33:14;-1.00;99.90
20233;DHT22;37438;55.674;13.074;2023-02-02T19:36:30;-1.00;99.90
20233;DHT22;37438;55.674;13.074;2023-02-02T19:39:48;-1.00;99.90
20233;DHT22;37438;55.674;13.074;2023-02-02T19:43:04;-1.00;99.90
20233;DHT22;37438;55.674;13.074;2023-02-02T19:46:26;-1.00;99.90
20233;DHT22;37438;55.674;13.074;2023-02-02T19:49:55;-1.00;99.90
20233;DHT22;37438;55.674;13.074;2023-02-02T19:53:40;-1.10;99.90
20233;DHT22;37438;55.674;13.074;2023-02-02T19:57:00;-1.20;99.90
20233;DHT22;37438;55.674;13.074;2023-02-02T20:00:21;-1.10;99.90
20233;DHT22;37438;55.674;13.074;2023-02-02T20:04:00;-1.00;99.90
20233;DHT22;37438;55.674;13.074;2023-02-02T20:07:14;-0.90;99.90
20233;DHT22;37438;55.674;13.074;2023-02-02T20:17:28;-0.90;99.90
20233;DHT22;37438;55.674;13.074;2023-02-02T20:24:02;-1.00;99.90
20233;DHT22;37438;55.674;13.074;2023-02-02T20:27:25;-1.00;99.90
20233;DHT22;37438;55.674;13.074;2023-02-02T20:30:46;-0.80;99.90
20233;DHT22;37438;55.674;13.074;2023-02-02T20:33:54;-0.80;99.90
20233;DHT22;37438;55.674;13.074;2023-02-02T20:37:40;-0.80;99.90
20233;DHT22;37438;55.674;13.074;2023-02-02T20:40:45;-0.70;99.90
20233;DHT22;37438;55.674;13.074;2023-02-02T20:43:51;-0.80;99.90
20233;DHT22;37438;55.674;13.074;2023-02-02T20:46:57;-0.80;99.90
20233;DHT22;37438;55.674;13.074;2023-02-02T20:50:06;-0.90;99.90
20233;DHT22;37438;55.674;13.074;2023-02-02T20:53:12;-0.80;99.90
20233;DHT22;37438;55.674;13.074;2023-02-02T20:56:21;-0.90;99.90
20233;DHT22;37438;55.674;13.074;2023-02-02T20:59:28;-0.80;99.90
20233;DHT22;37438;55.674;13.074;2023-02-02T21:02:34;-0.70;99.90
20233;DHT22;37438;55.674;13.074;2023-02-02T21:05:40;-0.70;99.90
20233;DHT22;37438;55.674;13.074;2023-02-02T21:08:45;-0.60;99.90
20233;DHT22;37438;55.674;13.074;2023-02-02T21:12:05;-0.70;99.90
20233;DHT22;37438;55.674;13.074;2023-02-02T21:15:26;-0.80;99.90
20233;DHT22;37438;55.674;13.074;2023-02-02T21:18:45;-0.70;99.90
20233;DHT22;37438;55.674;13.074;2023-02-02T21:21:52;-0.80;99.90
20233;DHT22;37438;55.674;13.074;2023-02-02T21:25:37;-0.70;99.90
20233;DHT22;37438;55.674;13.074;2023-02-02T21:28:46;-0.70;99.90
20233;DHT22;37438;55.674;13.074;2023-02-02T21:31:51;-0.80;99.90
20233;DHT22;37438;55.674;13.074;2023-02-02T21:35:13;-0.60;99.90
20233;DHT22;37438;55.674;13.074;2023-02-02T21:38:23;-0.50;99.90
20233;DHT22;37438;55.674;13.074;2023-02-02T21:41:31;-0.50;99.90
20233;DHT22;37438;55.674;13.074;2023-02-02T21:44:44;-0.50;99.90
20233;DHT22;37438;55.674;13.074;2023-02-02T21:48:01;-0.50;99.90
20233;DHT22;37438;55.674;13.074;2023-02-02T21:51:24;-0.20;99.90
20233;DHT22;37438;55.674;13.074;2023-02-02T21:54:35;-0.40;99.90
20233;DHT22;37438;55.674;13.074;2023-02-02T21:57:41;-0.30;99.90
20233;DHT22;37438;55.674;13.074;2023-02-02T22:00:53;-0.20;99.90
20233;DHT22;37438;55.674;13.074;2023-02-02T22:03:59;-0.40;99.90
20233;DHT22;37438;55.674;13.074;2023-02-02T22:07:13;-0.30;99.90
20233;DHT22;37438;55.674;13.074;2023-02-02T22:10:28;-0.30;99.90
20233;DHT22;37438;55.674;13.074;2023-02-02T22:13:38;-0.30;99.90
20233;DHT22;37438;55.674;13.074;2023-02-02T22:16:46;-0.20;99.90
20233;DHT22;37438;55.674;13.074;2023-02-02T22:20:00;-0.30;99.90
20233;DHT22;37438;55.674;13.074;2023-02-02T22:23:10;-0.10;99.90
20233;DHT22;37438;55.674;13.074;2023-02-02T22:26:32;-0.20;99.90
20233;DHT22;37438;55.674;13.074;2023-02-02T22:29:42;-0.10;99.90
20233;DHT22;37438;55.674;13.074;2023-02-02T22:33:08;-0.10;99.90
20233;DHT22;37438;55.674;13.074;2023-02-02T22:36:32;0.00;99.90
20233;DHT22;37438;55.674;13.074;2023-02-02T22:39:50;0.00;99.90
20233;DHT22;37438;55.674;13.074;2023-02-02T22:43:22;0.00;99.90
20233;DHT22;37438;55.674;13.074;2023-02-02T22:47:14;0.10;99.90
20233;DHT22;37438;55.674;13.074;2023-02-02T22:54:13;0.20;99.90
20233;DHT22;37438;55.674;13.074;2023-02-02T22:57:22;0.30;99.90
20233;DHT22;37438;55.674;13.074;2023-02-02T23:00:29;0.30;99.90
20233;DHT22;37438;55.674;13.074;2023-02-02T23:03:36;0.30;99.90
20233;DHT22;37438;55.674;13.074;2023-02-02T23:06:41;0.30;99.90
20233;DHT22;37438;55.674;13.074;2023-02-02T23:09:48;0.50;99.90
20233;DHT22;37438;55.674;13.074;2023-02-02T23:12:56;0.50;99.90
20233;DHT22;37438;55.674;13.074;2023-02-02T23:16:03;0.40;99.90
20233;DHT22;37438;55.674;13.074;2023-02-02T23:19:09;0.50;99.90
20233;DHT22;37438;55.674;13.074;2023-02-02T23:22:17;0.50;99.90
20233;DHT22;37438;55.674;13.074;2023-02-02T23:25:26;0.80;99.90
20233;DHT22;37438;55.674;13.074;2023-02-02T23:28:31;0.60;99.90
20233;DHT22;37438;55.674;13.074;2023-02-02T23:31:37;0.70;99.90
20233;DHT22;37438;55.674;13.074;2023-02-02T23:34:42;0.70;99.90
20233;DHT22;37438;55.674;13.074;2023-02-02T23:37:49;0.70;99.90
20233;DHT22;37438;55.674;13.074;2023-02-02T23:40:55;0.80;99.90
20233;DHT22;37438;55.674;13.074;2023-02-02T23:44:00;0.80;99.90
20233;DHT22;37438;55.674;13.074;2023-02-02T23:47:08;0.80;99.90
20233;DHT22;37438;55.674;13.074;2023-02-02T23:50:15;0.90;99.90
20233;DHT22;37438;55.674;13.074;2023-02-02T23:53:20;0.90;99.90
20233;DHT22;37438;55.674;13.074;2023-02-02T23:56:54;1.00;99.90
